Time;durP1;ratioP1;P1;durP2;ratioP2;P2;SDS_P1;SDS_P2;PMS_P1;PMS_P2;Temp;Humidity;BMP_temperature;BMP_pressure;BME280_temperature;BME280_humidity;BME280_pressure;Samples;Min_cycle;Max_cycle;Signal;HPM_P1;HPM_P2
2022/08/07 00:01:59;;;;;;;4.90;1.10;;;;;;;13.74;57.77;99889.09;106167;1274;22557;-85
2022/08/07 00:04:28;;;;;;;4.20;1.00;;;;;;;13.81;57.82;99893.80;106083;1273;22544;-84
2022/08/07 00:07:09;;;;;;;3.70;1.00;;;;;;;13.83;57.70;99895.23;106069;1274;24412;-84
2022/08/07 00:09:54;;;;;;;5.30;1.20;;;;;;;13.84;57.72;99895.92;106101;1273;25375;-82
2022/08/07 00:12:24;;;;;;;3.60;1.00;;;;;;;13.83;57.75;99900.59;106043;1274;24207;-85
2022/08/07 00:15:09;;;;;;;3.20;1.10;;;;;;;13.81;57.75;99902.71;105978;1274;22550;-84
2022/08/07 00:18:00;;;;;;;6.80;1.30;;;;;;;13.78;57.88;99904.15;106112;1274;25304;-84
2022/08/07 00:20:48;;;;;;;3.80;1.30;;;;;;;13.76;57.99;99905.20;106151;1274;22605;-85
2022/08/07 00:23:49;;;;;;;3.90;1.10;;;;;;;13.71;57.95;99903.27;106304;1273;23934;-82
2022/08/07 00:26:37;;;;;;;5.30;1.30;;;;;;;13.62;57.98;99900.83;106498;1273;23337;-83
2022/08/07 00:29:30;;;;;;;6.60;1.50;;;;;;;13.57;58.00;99893.20;106230;1273;25357;-83
2022/08/07 00:32:29;;;;;;;5.30;1.00;;;;;;;13.52;58.20;99889.93;106276;1273;22531;-87
2022/08/07 00:35:17;;;;;;;2.70;0.90;;;;;;;13.50;58.21;99899.05;106090;1273;22537;-83
2022/08/07 00:38:13;;;;;;;5.00;1.20;;;;;;;13.47;58.14;99901.17;106076;1274;22532;-85
2022/08/07 00:40:57;;;;;;;4.30;1.10;;;;;;;13.48;58.22;99900.04;105905;1274;22551;-83
2022/08/07 00:43:47;;;;;;;4.70;1.00;;;;;;;13.48;58.29;99900.91;106026;1274;22547;-83
2022/08/07 00:47:02;;;;;;;5.30;1.10;;;;;;;13.46;58.25;99901.23;106089;1274;23214;-84
2022/08/07 00:49:56;;;;;;;3.80;1.00;;;;;;;13.44;58.16;99901.09;106087;1274;24256;-84
2022/08/07 00:52:51;;;;;;;3.50;1.00;;;;;;;13.42;58.46;99898.90;106121;1274;25547;-83
2022/08/07 00:55:59;;;;;;;4.70;1.00;;;;;;;13.38;58.55;99896.15;106018;1274;22664;-83
2022/08/07 00:59:20;;;;;;;3.20;0.90;;;;;;;13.25;58.40;99902.92;106239;1273;22795;-83
2022/08/07 01:02:36;;;;;;;;;;;;;;;;;;;;;
2022/08/07 01:05:24;;;;;;;4.40;0.90;;;;;;;13.11;58.42;99898.30;106272;1272;25083;-83
2022/08/07 01:08:41;;;;;;;3.10;0.90;;;;;;;13.05;58.47;99897.30;102197;1274;5422354;-82
2022/08/07 01:11:43;;;;;;;5.30;0.90;;;;;;;12.97;58.59;99899.41;106232;1273;22562;-82
2022/08/07 01:14:56;;;;;;;3.90;1.10;;;;;;;12.94;58.70;99897.38;106388;1273;24220;-83
2022/08/07 01:18:36;;;;;;;;;;;;;;;;;;;;;
2022/08/07 01:21:49;;;;;;;;;;;;;;;;;;;;;
2022/08/07 01:24:48;;;;;;;3.90;0.80;;;;;;;12.87;58.76;99902.64;105643;1281;22738;-83
2022/08/07 01:27:55;;;;;;;;;;;;;;;;;;;;;
2022/08/07 01:31:30;;;;;;;;;;;;;;;;;;;;;
2022/08/07 01:34:18;;;;;;;6.10;1.00;;;;;;;12.74;58.94;99903.56;105681;1282;23972;-83
2022/08/07 01:37:15;;;;;;;4.50;1.00;;;;;;;12.70;59.09;99905.55;105730;1280;23071;-86
2022/08/07 01:39:57;;;;;;;3.30;1.00;;;;;;;12.68;59.08;99908.75;105680;1281;22553;-84
2022/08/07 01:43:02;;;;;;;4.50;1.10;;;;;;;12.65;59.12;99908.27;105544;1281;23202;-84
2022/08/07 01:45:58;;;;;;;2.70;1.00;;;;;;;12.61;59.27;99908.73;105661;1282;25353;-83
2022/08/07 01:48:45;;;;;;;3.40;0.90;;;;;;;12.59;59.41;99909.23;105631;1281;23332;-83
2022/08/07 01:51:23;;;;;;;4.00;1.10;;;;;;;12.56;59.42;99912.95;105684;1281;22949;-83
2022/08/07 01:53:57;;;;;;;4.70;1.00;;;;;;;12.54;59.52;99914.73;105566;1274;22551;-89
2022/08/07 01:56:43;;;;;;;4.20;1.10;;;;;;;12.49;59.65;99913.77;106113;1274;22544;-82
2022/08/07 01:59:35;;;;;;;4.70;0.90;;;;;;;12.47;59.57;99910.90;106345;1273;22549;-81
2022/08/07 02:02:12;;;;;;;6.00;0.90;;;;;;;12.45;59.75;99919.27;106985;1273;22695;-83
2022/08/07 02:04:58;;;;;;;3.90;1.00;;;;;;;12.42;59.88;99922.28;105992;1274;24212;-86
2022/08/07 02:07:40;;;;;;;3.60;0.90;;;;;;;12.39;59.85;99918.77;106100;1273;24415;-87
2022/08/07 02:10:25;;;;;;;4.80;1.10;;;;;;;12.32;59.91;99923.34;106045;1274;24209;-88
2022/08/07 02:13:00;;;;;;;4.20;1.10;;;;;;;12.23;60.12;99921.23;106137;1274;24193;-83
2022/08/07 02:15:45;;;;;;;3.20;0.80;;;;;;;12.18;60.29;99918.84;106042;1272;22574;-84
2022/08/07 02:18:28;;;;;;;4.70;1.00;;;;;;;12.19;60.25;99922.35;106325;1273;22705;-87
2022/08/07 02:21:03;;;;;;;5.40;1.00;;;;;;;12.24;60.30;99918.66;106273;1274;24251;-84
2022/08/07 02:23:41;;;;;;;5.20;1.00;;;;;;;12.28;60.38;99919.11;106019;1274;25349;-83
2022/08/07 02:26:15;;;;;;;4.50;1.10;;;;;;;12.28;60.48;99919.13;106224;1274;22535;-84
2022/08/07 02:28:49;;;;;;;4.50;1.00;;;;;;;12.29;60.47;99927.11;106285;1274;22648;-84
2022/08/07 02:31:34;;;;;;;4.50;1.20;;;;;;;12.31;60.65;99934.12;106045;1274;23934;-84
2022/08/07 02:34:04;;;;;;;4.80;1.30;;;;;;;12.20;60.41;99934.08;106094;1274;22556;-84
2022/08/07 02:36:46;;;;;;;4.60;1.20;;;;;;;12.08;60.62;99934.86;106328;1274;22535;-84
2022/08/07 02:39:22;;;;;;;3.50;1.30;;;;;;;12.05;60.60;99937.04;106149;1274;24226;-84
2022/08/07 02:41:58;;;;;;;5.60;1.20;;;;;;;12.02;60.81;99932.73;106022;1274;26556;-87
2022/08/07 02:44:39;;;;;;;5.10;1.30;;;;;;;11.97;60.75;99932.56;106037;1274;22597;-85
2022/08/07 02:47:15;;;;;;;4.20;0.90;;;;;;;11.92;60.94;99931.42;106269;1273;23192;-82
2022/08/07 02:50:00;;;;;;;6.80;1.10;;;;;;;11.94;60.91;99931.65;106559;1274;24088;-85
2022/08/07 02:52:49;;;;;;;4.50;1.20;;;;;;;11.97;60.94;99930.98;106267;1274;22557;-88
2022/08/07 02:55:36;;;;;;;6.90;1.20;;;;;;;11.97;61.08;99931.87;106175;1274;25347;-83
2022/08/07 02:58:12;;;;;;;5.70;1.30;;;;;;;11.99;61.04;99930.27;106314;1273;22553;-84
2022/08/07 03:01:01;;;;;;;4.90;1.00;;;;;;;11.98;61.02;99931.61;106064;1274;23271;-83
2022/08/07 03:03:42;;;;;;;4.40;1.20;;;;;;;11.84;60.92;99932.45;106109;1274;22690;-83
2022/08/07 03:06:28;;;;;;;6.60;1.20;;;;;;;11.70;61.03;99931.52;106098;1274;22521;-85
2022/08/07 03:09:10;;;;;;;6.70;1.20;;;;;;;11.61;61.30;99933.52;106067;1273;22664;-83
2022/08/07 03:11:58;;;;;;;6.80;1.30;;;;;;;11.56;61.30;99931.70;106211;1274;24531;-83
2022/08/07 03:14:39;;;;;;;3.60;0.80;;;;;;;11.53;61.59;99929.56;106114;1274;22557;-85
2022/08/07 03:17:12;;;;;;;8.10;1.10;;;;;;;11.54;61.52;99925.22;106034;1273;25288;-83
2022/08/07 03:19:52;;;;;;;4.10;1.10;;;;;;;11.49;61.62;99925.73;106035;1274;22611;-83
2022/08/07 03:22:38;;;;;;;5.20;1.00;;;;;;;11.45;61.79;99924.77;106100;1274;25197;-84
2022/08/07 03:25:16;;;;;;;5.30;1.10;;;;;;;11.42;61.96;99924.59;106104;1274;22531;-86
2022/08/07 03:27:59;;;;;;;5.00;1.30;;;;;;;11.41;62.01;99922.48;106130;1273;22700;-84
2022/08/07 03:30:38;;;;;;;7.30;1.30;;;;;;;11.40;61.99;99926.13;106065;1273;25374;-83
2022/08/07 03:33:24;;;;;;;6.40;1.10;;;;;;;11.42;61.97;99930.64;106080;1274;22550;-83
2022/08/07 03:36:13;;;;;;;5.40;1.40;;;;;;;11.43;61.80;99928.41;107005;1273;25533;-82
2022/08/07 03:38:57;;;;;;;5.10;1.10;;;;;;;11.49;62.02;99928.75;106081;1274;23277;-83
2022/08/07 03:41:36;;;;;;;7.10;1.30;;;;;;;11.60;62.15;99929.52;105814;1275;22549;-82
2022/08/07 03:44:07;;;;;;;4.70;1.30;;;;;;;11.70;62.11;99927.11;106079;1274;22615;-81
2022/08/07 03:46:36;;;;;;;5.70;1.30;;;;;;;11.78;62.12;99923.92;106000;1274;22562;-83
2022/08/07 03:49:07;;;;;;;4.80;1.50;;;;;;;11.85;62.14;99923.33;105990;1274;23161;-82
2022/08/07 03:51:50;;;;;;;3.50;1.10;;;;;;;11.87;61.98;99922.25;106124;1274;24415;-87
2022/08/07 03:54:40;;;;;;;4.80;1.10;;;;;;;11.89;62.14;99925.71;105995;1274;22831;-83
2022/08/07 03:57:12;;;;;;;4.90;1.60;;;;;;;11.90;62.11;99919.27;105996;1274;22548;-86
2022/08/07 03:59:59;;;;;;;5.90;1.20;;;;;;;11.91;62.13;99922.43;106090;1273;24219;-85
2022/08/07 04:02:50;;;;;;;5.00;1.10;;;;;;;11.98;62.31;99919.29;106138;1273;22610;-85
2022/08/07 04:05:39;;;;;;;5.20;1.20;;;;;;;12.07;62.45;99915.98;106284;1274;22697;-85
2022/08/07 04:08:19;;;;;;;3.00;1.00;;;;;;;12.14;62.45;99916.96;106066;1274;24238;-84
2022/08/07 04:11:06;;;;;;;5.60;1.30;;;;;;;12.22;62.46;99920.75;106300;1273;22547;-84
2022/08/07 04:13:45;;;;;;;5.50;1.40;;;;;;;12.34;62.65;99920.67;105984;1274;25356;-83
2022/08/07 04:16:20;;;;;;;5.50;1.40;;;;;;;12.39;62.50;99916.80;106172;1274;22534;-89
2022/08/07 04:19:05;;;;;;;6.90;1.50;;;;;;;12.38;62.70;99919.70;106112;1273;24504;-83
2022/08/07 04:22:06;;;;;;;3.50;1.30;;;;;;;12.43;62.63;99921.86;106326;1274;24383;-83
2022/08/07 04:24:59;;;;;;;8.60;1.30;;;;;;;12.47;62.66;99920.00;106116;1273;22663;-90
2022/08/07 04:27:47;;;;;;;5.70;1.30;;;;;;;12.51;62.66;99921.68;106086;1273;24421;-84
2022/08/07 04:30:38;;;;;;;4.90;1.20;;;;;;;12.61;62.62;99922.66;106080;1273;24265;-85
2022/08/07 04:33:32;;;;;;;6.30;1.50;;;;;;;12.74;62.64;99920.89;106219;1274;22579;-85
2022/08/07 04:36:33;;;;;;;4.40;1.50;;;;;;;12.88;62.81;99924.96;106143;1274;22803;-87
2022/08/07 04:39:51;;;;;;;5.20;1.50;;;;;;;12.98;62.67;99924.42;106166;1274;22554;-86
2022/08/07 04:42:43;;;;;;;7.10;1.90;;;;;;;13.07;62.69;99923.96;106291;1274;22816;-84
2022/08/07 04:46:31;;;;;;;;;;;;;;;;;;;;;
2022/08/07 04:50:22;;;;;;;9.00;1.90;;;;;;;13.33;62.68;99925.96;106299;1273;22550;-85
2022/08/07 04:54:20;;;;;;;5.50;1.80;;;;;;;13.47;62.72;99928.90;105761;1279;22566;-88
2022/08/07 04:57:42;;;;;;;6.90;2.00;;;;;;;13.66;62.76;99927.43;105176;1287;22715;-85
2022/08/07 05:01:12;;;;;;;7.30;1.80;;;;;;;13.85;62.71;99928.55;104667;1290;24234;-85
2022/08/07 05:04:46;;;;;;;;;;;;;;;;;;;;;
2022/08/07 05:08:03;;;;;;;7.80;1.80;;;;;;;14.36;62.79;99941.66;104350;1292;25322;-83
2022/08/07 05:11:28;;;;;;;;;;;;;;;;;;;;;
2022/08/07 05:15:01;;;;;;;;;;;;;;;;;;;;;
2022/08/07 05:18:46;;;;;;;7.10;1.90;;;;;;;15.03;62.56;99944.16;104021;1297;24334;-88
2022/08/07 05:22:10;;;;;;;;;;;;;;;;;;;;;
2022/08/07 05:25:03;;;;;;;7.40;1.80;;;;;;;15.49;62.45;99931.23;103945;1297;25438;-84
2022/08/07 05:27:34;;;;;;;5.30;1.80;;;;;;;15.68;62.30;99929.45;104075;1297;22803;-84
2022/08/07 05:30:05;;;;;;;6.00;1.40;;;;;;;15.89;62.30;99931.70;104102;1296;24263;-85
2022/08/07 05:32:46;;;;;;;5.70;1.60;;;;;;;16.13;62.25;99930.65;104543;1290;22553;-84
2022/08/07 05:35:23;;;;;;;10.50;1.80;;;;;;;16.39;62.05;99932.10;104867;1288;22626;-84
2022/08/07 05:37:59;;;;;;;9.70;1.70;;;;;;;16.62;62.03;99934.36;105374;1282;22731;-86
2022/08/07 05:40:36;;;;;;;5.60;1.50;;;;;;;16.80;61.82;99935.58;105468;1282;23299;-84
2022/08/07 05:43:19;;;;;;;4.30;1.50;;;;;;;16.94;61.61;99936.38;105501;1282;25453;-84
2022/08/07 05:45:51;;;;;;;6.20;1.60;;;;;;;17.08;61.69;99938.08;105413;1282;26484;-83
2022/08/07 05:48:27;;;;;;;5.50;1.40;;;;;;;17.21;61.67;99935.90;105605;1282;22557;-85
2022/08/07 05:50:59;;;;;;;5.90;1.30;;;;;;;17.32;61.17;99930.23;105523;1274;23539;-84
2022/08/07 05:53:30;;;;;;;4.80;1.30;;;;;;;17.41;61.25;99931.11;106212;1273;22726;-85
2022/08/07 05:56:15;;;;;;;4.00;0.90;;;;;;;17.49;61.00;99931.62;106101;1274;24244;-83
2022/08/07 05:58:51;;;;;;;5.60;1.10;;;;;;;17.62;61.10;99932.37;106852;1274;25472;-84
2022/08/07 06:01:27;;;;;;;5.90;1.10;;;;;;;17.75;61.07;99936.77;106294;1274;22867;-84
2022/08/07 06:04:00;;;;;;;6.40;1.00;;;;;;;17.92;60.97;99939.77;106350;1273;22797;-85
2022/08/07 06:06:38;;;;;;;5.70;1.00;;;;;;;18.06;60.79;99941.02;106111;1273;22623;-87
2022/08/07 06:09:13;;;;;;;4.80;1.00;;;;;;;18.11;60.36;99942.60;106088;1274;22552;-85
2022/08/07 06:11:59;;;;;;;5.10;1.30;;;;;;;18.12;59.94;99941.98;106067;1273;25336;-84
2022/08/07 06:14:38;;;;;;;3.40;0.90;;;;;;;18.07;59.87;99945.27;106335;1274;22752;-85
2022/08/07 06:17:11;;;;;;;5.30;1.20;;;;;;;17.98;59.75;99944.61;106130;1274;22532;-84
2022/08/07 06:19:46;;;;;;;3.30;1.20;;;;;;;17.99;60.02;99941.85;106128;1274;22556;-85
2022/08/07 06:22:17;;;;;;;4.80;0.90;;;;;;;18.10;59.98;99944.27;106064;1274;26472;-85
2022/08/07 06:24:53;;;;;;;5.30;1.20;;;;;;;18.09;59.74;99945.48;106292;1274;22990;-84
2022/08/07 06:27:23;;;;;;;5.30;1.30;;;;;;;18.03;59.55;99947.21;106182;1274;24289;-85
2022/08/07 06:29:54;;;;;;;7.00;1.50;;;;;;;18.03;59.81;99945.67;106314;1273;24150;-85
2022/08/07 06:32:24;;;;;;;6.50;1.30;;;;;;;18.07;59.45;99947.95;106035;1274;22632;-85
2022/08/07 06:35:00;;;;;;;4.30;1.50;;;;;;;18.14;59.85;99953.31;106316;1274;22544;-87
2022/08/07 06:37:35;;;;;;;7.10;1.30;;;;;;;18.23;59.80;99951.41;106124;1274;24098;-84
2022/08/07 06:40:08;;;;;;;6.50;1.40;;;;;;;18.26;58.99;99955.63;106116;1274;24379;-87
2022/08/07 06:42:47;;;;;;;5.50;1.30;;;;;;;18.23;59.33;99952.30;106125;1274;24242;-83
2022/08/07 06:45:28;;;;;;;5.20;1.10;;;;;;;18.30;59.08;99958.20;106680;1273;23830;-82
2022/08/07 06:48:01;;;;;;;5.70;1.30;;;;;;;18.43;59.50;99957.58;106431;1273;25511;-83
2022/08/07 06:50:41;;;;;;;6.00;1.20;;;;;;;18.48;58.94;99956.71;105964;1274;22536;-87
2022/08/07 06:53:13;;;;;;;4.00;1.30;;;;;;;18.51;58.81;99955.22;106207;1273;22563;-85
2022/08/07 06:55:50;;;;;;;6.80;1.00;;;;;;;18.59;58.73;99954.10;106054;1274;22694;-84
2022/08/07 06:58:25;;;;;;;3.30;1.00;;;;;;;18.59;58.35;99953.75;106340;1274;22471;-84
2022/08/07 07:00:59;;;;;;;5.10;1.20;;;;;;;18.64;58.57;99954.20;106107;1273;22554;-87
2022/08/07 07:03:36;;;;;;;3.80;1.10;;;;;;;18.85;58.93;99949.59;106312;1273;24182;-83
2022/08/07 07:06:08;;;;;;;5.10;1.40;;;;;;;18.98;58.46;99946.00;106086;1273;24398;-88
2022/08/07 07:08:35;;;;;;;5.10;1.00;;;;;;;19.15;58.67;99945.48;106061;1274;22663;-86
2022/08/07 07:11:08;;;;;;;4.20;1.00;;;;;;;19.25;57.83;99941.90;106382;1274;22587;-84
2022/08/07 07:13:40;;;;;;;4.10;1.00;;;;;;;19.14;58.13;99947.05;106056;1274;23988;-86
2022/08/07 07:16:23;;;;;;;4.80;1.20;;;;;;;19.27;58.27;99949.66;106334;1273;22605;-89
2022/08/07 07:19:01;;;;;;;5.60;0.90;;;;;;;19.18;57.65;99946.53;106375;1274;22654;-84
2022/08/07 07:21:35;;;;;;;4.20;1.00;;;;;;;19.12;58.07;99941.09;106125;1273;22919;-88
2022/08/07 07:24:07;;;;;;;4.20;0.90;;;;;;;19.24;58.18;99943.96;106015;1274;24078;-85
2022/08/07 07:26:43;;;;;;;4.10;0.70;;;;;;;19.39;57.99;99940.92;106148;1274;22549;-87
2022/08/07 07:29:23;;;;;;;4.20;0.90;;;;;;;19.38;57.79;99941.52;106229;1273;22844;-88
2022/08/07 07:31:59;;;;;;;3.50;0.70;;;;;;;19.53;58.14;99938.34;106072;1274;22605;-84
2022/08/07 07:34:33;;;;;;;3.30;0.90;;;;;;;19.78;57.93;99942.23;106733;1273;25549;-83
2022/08/07 07:37:16;;;;;;;7.60;1.10;;;;;;;19.93;57.39;99939.14;106179;1273;24002;-86
2022/08/07 07:39:59;;;;;;;3.40;1.00;;;;;;;20.16;57.89;99939.27;106176;1274;22542;-89
2022/08/07 07:42:35;;;;;;;3.70;0.90;;;;;;;20.50;57.60;99935.59;106101;1274;24250;-86
2022/08/07 07:45:20;;;;;;;4.70;0.90;;;;;;;20.68;57.32;99936.83;106203;1274;22709;-84
2022/08/07 07:48:02;;;;;;;4.10;1.10;;;;;;;20.83;57.00;99934.61;106129;1274;23071;-85
2022/08/07 07:50:38;;;;;;;3.50;1.00;;;;;;;20.86;56.92;99933.44;106374;1273;24218;-89
2022/08/07 07:53:12;;;;;;;3.60;0.80;;;;;;;21.01;57.33;99933.83;106390;1274;24344;-86
2022/08/07 07:55:42;;;;;;;4.80;1.10;;;;;;;21.29;57.37;99927.88;106118;1274;22548;-89
2022/08/07 07:58:13;;;;;;;4.90;1.00;;;;;;;21.59;57.55;99928.23;106097;1274;22559;-87
2022/08/07 08:00:54;;;;;;;4.50;0.90;;;;;;;21.88;57.17;99931.49;106088;1274;22606;-86
2022/08/07 08:03:23;;;;;;;5.00;1.00;;;;;;;21.87;56.00;99930.40;106135;1274;23136;-86
2022/08/07 08:06:01;;;;;;;4.10;1.00;;;;;;;21.59;55.80;99932.41;106287;1274;25596;-86
2022/08/07 08:08:36;;;;;;;7.70;1.70;;;;;;;21.34;55.92;99929.10;106115;1274;22596;-87
2022/08/07 08:11:08;;;;;;;5.40;1.60;;;;;;;21.31;56.17;99926.81;106216;1274;22704;-86
2022/08/07 08:13:48;;;;;;;6.20;1.30;;;;;;;21.45;56.55;99928.05;106150;1274;22582;-88
2022/08/07 08:16:26;;;;;;;6.30;0.80;;;;;;;21.55;56.11;99930.52;106352;1274;23932;-86
2022/08/07 08:19:00;;;;;;;6.80;1.00;;;;;;;21.55;55.39;99932.59;106148;1274;23173;-87
2022/08/07 08:27:55;;;;;;;8.20;2.20;;;;;;;21.65;56.01;99932.31;106254;1274;24292;-84
2022/08/07 08:30:35;;;;;;;5.50;1.30;;;;;;;21.88;55.96;99934.24;106090;1274;24276;-86
2022/08/07 08:33:21;;;;;;;4.00;1.00;;;;;;;22.18;55.86;99928.54;106333;1274;22566;-86
2022/08/07 08:36:12;;;;;;;4.70;1.00;;;;;;;22.49;55.64;99927.77;106256;1273;24256;-86
2022/08/07 08:38:56;;;;;;;11.30;4.20;;;;;;;22.65;55.33;99927.46;106302;1274;22666;-85
2022/08/07 08:42:17;;;;;;;9.10;2.20;;;;;;;22.81;55.55;99926.58;106087;1274;25577;-85
2022/08/07 08:45:23;;;;;;;9.50;3.30;;;;;;;22.98;54.49;99926.78;106149;1273;22545;-86
2022/08/07 08:49:21;;;;;;;3.90;1.20;;;;;;;22.78;54.46;99933.14;106127;1274;24127;-87
2022/08/07 08:52:14;;;;;;;4.00;1.00;;;;;;;22.88;54.44;99930.80;106294;1273;22697;-88
2022/08/07 08:55:05;;;;;;;4.80;1.20;;;;;;;23.04;54.47;99933.60;106305;1273;22557;-89
2022/08/07 08:58:02;;;;;;;2.80;1.00;;;;;;;23.22;54.42;99931.80;106161;1274;25543;-85
2022/08/07 09:00:56;;;;;;;13.80;7.20;;;;;;;23.19;54.32;99931.41;106148;1274;22607;-87
2022/08/07 09:04:07;;;;;;;;;;;;;;;;;;;;;
2022/08/07 09:10:35;;;;;;;11.40;3.70;;;;;;;23.29;53.75;99933.31;106366;1274;25719;-82
2022/08/07 09:13:47;;;;;;;8.50;1.90;;;;;;;23.44;53.81;99928.05;106254;1274;22729;-85
2022/08/07 09:17:35;;;;;;;29.30;17.10;;;;;;;23.19;52.25;99925.38;106194;1274;23948;-85
2022/08/07 09:20:32;;;;;;;12.70;4.90;;;;;;;22.96;52.57;99923.35;106262;1273;24192;-89
2022/08/07 09:23:48;;;;;;;9.40;2.40;;;;;;;23.02;52.79;99922.91;106001;1280;24251;-88
2022/08/07 09:26:38;;;;;;;3.50;0.80;;;;;;;23.23;53.35;99919.80;105135;1285;24202;-90
2022/08/07 09:29:21;;;;;;;9.60;4.30;;;;;;;23.33;53.12;99917.77;105253;1286;22546;-89
2022/08/07 09:32:08;;;;;;;8.30;3.00;;;;;;;23.58;53.17;99906.98;105372;1285;22590;-91
2022/08/07 09:35:06;;;;;;;3.40;1.10;;;;;;;23.76;51.99;99901.88;105670;1286;24236;-88
2022/08/07 09:42:13;;;;;;;;;;;;;;;;;;;;;
2022/08/07 09:45:20;;;;;;;2.70;0.60;;;;;;;23.20;52.00;99905.03;105365;1294;24233;-92
2022/08/07 09:48:03;;;;;;;3.20;0.70;;;;;;;23.69;52.11;99898.05;104541;1294;24242;-92
2022/08/07 09:50:50;;;;;;;4.50;0.80;;;;;;;23.87;52.02;99894.78;107919;1273;22606;-91
2022/08/07 09:53:25;;;;;;;2.90;0.70;;;;;;;23.79;50.99;99893.00;106517;1273;25512;-90
2022/08/07 09:56:58;;;;;;;5.60;0.70;;;;;;;23.45;51.30;99892.03;105993;1274;22480;-92
2022/08/07 10:00:12;;;;;;;2.40;0.70;;;;;;;23.35;51.56;99889.34;107548;1274;22669;-87
2022/08/07 10:03:17;;;;;;;3.40;0.70;;;;;;;23.37;51.72;99878.07;106199;1273;26504;-88
2022/08/07 10:06:12;;;;;;;2.50;0.80;;;;;;;23.78;51.03;99876.50;106208;1274;22537;-88
2022/08/07 10:09:10;;;;;;;5.00;0.60;;;;;;;24.02;51.01;99872.11;106091;1274;22679;-89
2022/08/07 10:12:14;;;;;;;2.60;0.50;;;;;;;23.96;50.90;99872.78;105794;1277;22582;-89
2022/08/07 10:15:10;;;;;;;4.60;1.30;;;;;;;23.72;50.88;99874.85;106114;1276;22554;-88
2022/08/07 10:18:09;;;;;;;2.20;0.60;;;;;;;24.08;50.98;99866.86;106235;1276;25449;-92
2022/08/07 10:21:03;;;;;;;2.50;0.60;;;;;;;24.67;51.22;99860.67;106264;1276;24228;-90
2022/08/07 10:23:44;;;;;;;3.50;0.80;;;;;;;25.17;50.78;99855.09;106215;1276;22548;-90
2022/08/07 10:26:52;;;;;;;4.60;0.80;;;;;;;25.41;50.13;99850.02;106160;1276;23802;-91
2022/08/07 10:29:57;;;;;;;2.90;0.60;;;;;;;24.78;49.37;99856.64;106154;1276;22565;-90
2022/08/07 10:33:25;;;;;;;2.00;0.50;;;;;;;24.33;49.08;99856.14;106397;1276;24025;-91
2022/08/07 10:36:33;;;;;;;6.00;1.50;;;;;;;23.34;48.97;99854.64;105953;1282;22535;-90
2022/08/07 10:39:24;;;;;;;3.00;0.80;;;;;;;22.75;49.09;99856.06;105041;1288;22567;-88
2022/08/07 10:42:03;;;;;;;2.40;0.70;;;;;;;22.49;48.92;99854.98;105022;1287;22573;-91
2022/08/07 10:44:47;;;;;;;5.20;1.30;;;;;;;22.18;49.21;99855.42;104941;1288;22626;-89
2022/08/07 10:47:38;;;;;;;4.60;1.00;;;;;;;22.20;49.70;99851.10;106312;1288;26689;-88
2022/08/07 10:50:13;;;;;;;2.60;0.40;;;;;;;22.78;49.78;99843.70;105059;1287;22857;-87
2022/08/07 10:52:51;;;;;;;4.10;0.80;;;;;;;23.19;49.17;99837.92;105247;1288;22600;-90
2022/08/07 10:55:26;;;;;;;3.00;0.80;;;;;;;23.70;49.42;99834.48;105203;1288;22570;-89
2022/08/07 10:58:27;;;;;;;3.20;0.70;;;;;;;24.19;48.82;99831.16;105346;1288;23815;-89
2022/08/07 11:01:05;;;;;;;5.00;1.70;;;;;;;24.45;48.39;99827.80;104763;1291;25464;-88
2022/08/07 11:04:22;;;;;;;6.10;0.80;;;;;;;24.30;48.13;99829.40;105753;1288;22567;-90
2022/08/07 11:07:13;;;;;;;1.90;0.70;;;;;;;23.79;48.18;99826.96;105659;1282;22547;-87
2022/08/07 11:09:47;;;;;;;1.80;0.60;;;;;;;23.93;48.06;99824.27;106206;1282;25244;-89
2022/08/07 11:12:36;;;;;;;4.30;1.10;;;;;;;23.98;46.97;99817.70;105627;1282;22633;-89
2022/08/07 11:15:19;;;;;;;6.00;1.40;;;;;;;23.91;47.89;99817.01;106028;1282;23223;-89
2022/08/07 11:18:18;;;;;;;7.40;1.80;;;;;;;24.40;48.36;99813.89;106428;1276;22562;-88
2022/08/07 11:20:57;;;;;;;4.10;1.00;;;;;;;24.88;48.09;99811.38;106594;1276;25562;-89
2022/08/07 11:24:13;;;;;;;3.10;1.00;;;;;;;25.25;47.61;99805.98;106097;1276;22532;-89
2022/08/07 11:27:07;;;;;;;3.90;0.60;;;;;;;25.34;46.85;99803.80;105347;1284;22774;-87
2022/08/07 11:29:46;;;;;;;3.10;0.60;;;;;;;25.18;46.60;99803.80;105416;1282;22831;-89
2022/08/07 11:32:50;;;;;;;4.80;0.90;;;;;;;25.05;46.82;99802.50;107146;1282;22656;-86
2022/08/07 11:35:21;;;;;;;8.40;1.20;;;;;;;24.79;46.50;99801.35;107032;1282;22693;-88
2022/08/07 11:37:49;;;;;;;5.80;1.00;;;;;;;24.78;46.92;99806.20;105669;1282;22545;-88
2022/08/07 11:41:06;;;;;;;3.40;0.80;;;;;;;24.72;46.57;99799.90;105903;1282;24210;-91
2022/08/07 11:44:15;;;;;;;2.80;0.70;;;;;;;24.26;46.92;99796.98;105852;1283;23229;-91
2022/08/07 11:47:03;;;;;;;3.30;0.90;;;;;;;24.35;46.53;99794.61;104956;1290;22576;-85
2022/08/07 11:49:51;;;;;;;1.90;0.50;;;;;;;24.27;45.73;99794.95;105123;1290;25493;-87
2022/08/07 11:52:29;;;;;;;6.40;2.10;;;;;;;24.23;46.12;99787.83;104866;1290;24552;-88
2022/08/07 11:55:36;;;;;;;4.90;1.10;;;;;;;24.47;46.37;99789.30;104921;1291;22557;-90
2022/08/07 11:58:26;;;;;;;2.10;0.70;;;;;;;24.69;46.22;99796.41;106323;1290;22762;-88
2022/08/07 12:01:33;;;;;;;3.80;0.90;;;;;;;24.41;45.42;99792.39;105594;1291;25403;-91
2022/08/07 12:04:28;;;;;;;6.20;1.40;;;;;;;24.24;46.16;99782.92;106697;1283;22617;-92
2022/08/07 12:07:23;;;;;;;3.70;0.90;;;;;;;24.47;45.81;99784.10;105613;1285;22708;-86
2022/08/07 12:09:59;;;;;;;2.40;0.70;;;;;;;24.43;45.42;99779.11;105302;1285;23982;-86
2022/08/07 12:12:38;;;;;;;5.60;1.20;;;;;;;24.36;45.49;99779.02;105460;1284;22587;-86
2022/08/07 12:15:21;;;;;;;4.40;0.80;;;;;;;24.47;45.92;99782.76;105427;1284;23213;-87
2022/08/07 12:18:34;;;;;;;10.10;0.90;;;;;;;24.48;45.36;99784.31;105560;1284;25290;-85
2022/08/07 12:21:23;;;;;;;4.80;0.90;;;;;;;24.33;45.55;99781.18;105500;1288;25142;-85
2022/08/07 12:24:13;;;;;;;3.20;0.70;;;;;;;24.47;45.62;99782.12;106089;1283;22528;-86
2022/08/07 12:27:14;;;;;;;;;;;;;;;;;;;;;
2022/08/07 12:30:03;;;;;;;4.70;0.80;;;;;;;24.92;45.37;99775.95;106994;1283;22553;-85
2022/08/07 12:32:53;;;;;;;4.60;0.80;;;;;;;25.11;45.00;99767.70;105744;1282;25635;-85
2022/08/07 12:35:23;;;;;;;2.70;0.60;;;;;;;25.01;44.35;99768.61;105604;1285;22595;-84
2022/08/07 12:37:58;;;;;;;4.10;0.70;;;;;;;24.79;43.75;99761.70;105744;1286;25401;-85
2022/08/07 12:40:31;;;;;;;3.40;0.90;;;;;;;24.61;44.43;99756.81;105642;1282;22586;-86
2022/08/07 12:43:20;;;;;;;3.20;0.90;;;;;;;24.72;44.27;99755.49;106849;1282;24220;-86
2022/08/07 12:46:45;;;;;;;3.30;1.00;;;;;;;24.66;44.26;99754.34;105536;1284;22539;-88
2022/08/07 12:49:43;;;;;;;6.70;1.30;;;;;;;24.78;44.48;99751.73;105460;1284;22532;-88
2022/08/07 12:52:33;;;;;;;6.80;1.80;;;;;;;24.92;44.40;99748.84;105466;1282;26469;-86
2022/08/07 12:55:28;;;;;;;5.80;1.40;;;;;;;24.97;44.18;99749.52;105381;1282;24317;-88
2022/08/07 12:58:05;;;;;;;3.60;0.90;;;;;;;24.99;44.11;99748.25;105661;1276;25371;-86
2022/08/07 13:00:55;;;;;;;4.20;0.80;;;;;;;24.99;43.98;99745.75;105924;1277;22538;-88
2022/08/07 13:04:50;;;;;;;4.00;0.90;;;;;;;24.98;43.66;99740.73;105905;1276;24310;-92
2022/08/07 13:08:38;;;;;;;;;;;;;;;;;;;;;
2022/08/07 13:12:28;;;;;;;;;;;;;;;;;;;;;
2022/08/07 13:16:06;;;;;;;;;;;;;;;;;;;;;
2022/08/07 13:19:35;;;;;;;5.60;1.00;;;;;;;24.67;43.81;99723.62;105411;1284;22794;-91
2022/08/07 13:23:18;;;;;;;;;;;;;;;;;;;;;
2022/08/07 13:26:29;;;;;;;3.20;0.90;;;;;;;24.54;43.24;99718.60;104565;1290;25518;-90
2022/08/07 13:29:53;;;;;;;4.50;0.80;;;;;;;24.52;43.15;99721.35;104073;1297;22658;-90
2022/08/07 13:33:01;;;;;;;3.30;0.80;;;;;;;24.45;42.52;99713.57;104128;1297;22578;-88
2022/08/07 13:36:23;;;;;;;4.20;0.90;;;;;;;24.12;42.27;99704.83;104098;1297;22573;-89
2022/08/07 13:39:18;;;;;;;4.20;0.60;;;;;;;23.92;42.61;99702.64;104151;1297;22845;-86
2022/08/07 13:42:26;;;;;;;;;;;;;;;;;;;;;
2022/08/07 13:45:04;;;;;;;3.90;1.00;;;;;;;24.34;42.41;99698.12;104001;1297;25460;-88
2022/08/07 13:47:35;;;;;;;9.50;2.60;;;;;;;24.22;42.48;99691.14;104177;1297;22723;-89
2022/08/07 13:50:06;;;;;;;14.70;8.20;;;;;;;24.31;42.60;99692.98;104384;1297;22692;-87
2022/08/07 13:52:50;;;;;;;8.40;3.10;;;;;;;24.49;43.12;99692.65;104104;1297;26621;-89
2022/08/07 13:55:33;;;;;;;7.10;1.60;;;;;;;24.62;42.78;99690.37;104172;1290;25598;-88